Time;durP1;ratioP1;P1;durP2;ratioP2;P2;SDS_P1;SDS_P2;PMS_P1;PMS_P2;Temp;Humidity;BMP_temperature;BMP_pressure;BME280_temperature;BME280_humidity;BME280_pressure;Samples;Min_cycle;Max_cycle;Signal;HPM_P1;HPM_P2
2020/12/02 00:02:42;;;;;;;59.13;23.87;;;-2.40;99.90;;;;;;4426992;32;20143;-76
2020/12/02 00:05:11;;;;;;;58.17;22.23;;;-2.40;99.90;;;;;;4426750;32;20245;-76
2020/12/02 00:07:41;;;;;;;63.17;24.47;;;-2.40;99.90;;;;;;4425461;32;20135;-75
2020/12/02 00:10:08;;;;;;;61.57;22.70;;;-2.40;99.90;;;;;;4425944;32;20521;-74
2020/12/02 00:12:34;;;;;;;61.77;24.23;;;-2.40;99.90;;;;;;4424710;32;20134;-74
2020/12/02 00:15:01;;;;;;;66.40;24.10;;;-2.40;99.90;;;;;;4425080;32;20204;-80
2020/12/02 00:17:28;;;;;;;60.20;24.03;;;-2.50;99.90;;;;;;4423602;32;20540;-74
2020/12/02 00:19:54;;;;;;;69.10;24.77;;;-2.50;99.90;;;;;;4424678;32;20147;-74
2020/12/02 00:22:23;;;;;;;65.30;25.43;;;-2.60;99.90;;;;;;4425197;32;20150;-74
2020/12/02 00:24:51;;;;;;;63.33;25.53;;;-2.60;99.90;;;;;;4425212;32;20247;-74
2020/12/02 00:27:27;;;;;;;65.07;24.53;;;-2.60;99.90;;;;;;4424994;32;20212;-74
2020/12/02 00:29:54;;;;;;;60.87;23.87;;;-2.60;99.90;;;;;;4426554;32;20170;-75
2020/12/02 00:32:33;;;;;;;67.23;25.37;;;-2.60;99.90;;;;;;4424564;32;20155;-74
2020/12/02 00:35:00;;;;;;;63.47;24.47;;;-2.60;99.90;;;;;;4426719;32;20155;-74
2020/12/02 00:37:28;;;;;;;61.60;24.10;;;-2.60;99.90;;;;;;4425013;32;20219;-74
2020/12/02 00:39:57;;;;;;;68.33;25.03;;;-2.60;99.90;;;;;;4424985;32;20374;-74
2020/12/02 00:42:23;;;;;;;68.17;26.10;;;-2.60;99.90;;;;;;4424927;32;20465;-76
2020/12/02 00:44:50;;;;;;;59.17;23.80;;;-2.70;99.90;;;;;;4424824;32;20192;-74
2020/12/02 00:47:21;;;;;;;67.07;24.50;;;-2.70;99.90;;;;;;4424885;32;20379;-75
2020/12/02 00:49:48;;;;;;;67.87;25.40;;;-2.70;99.90;;;;;;4425036;32;20163;-75
2020/12/02 00:52:15;;;;;;;63.93;24.13;;;-2.70;99.90;;;;;;4424790;32;20546;-75
2020/12/02 00:54:42;;;;;;;62.77;24.47;;;-2.70;99.90;;;;;;4424732;32;20214;-74
2020/12/02 00:57:09;;;;;;;65.07;24.83;;;-2.80;99.90;;;;;;4424629;32;20202;-74
2020/12/02 00:59:38;;;;;;;61.37;24.90;;;-2.80;99.90;;;;;;4424622;32;20199;-75
2020/12/02 01:02:16;;;;;;;61.70;24.27;;;-2.90;99.90;;;;;;4426425;32;20388;-75
2020/12/02 01:04:44;;;;;;;66.07;24.50;;;-2.80;99.90;;;;;;4430384;32;20196;-76
2020/12/02 01:07:15;;;;;;;65.47;24.63;;;-2.90;99.90;;;;;;4439711;32;20397;-75
2020/12/02 01:09:42;;;;;;;61.30;24.13;;;-2.90;99.90;;;;;;4441211;32;20400;-75
2020/12/02 01:12:15;;;;;;;60.57;23.17;;;-2.90;99.90;;;;;;4439648;32;20189;-75
2020/12/02 01:14:44;;;;;;;60.07;25.17;;;-2.90;99.90;;;;;;4441118;32;20154;-75
2020/12/02 01:17:11;;;;;;;65.70;24.83;;;-2.90;99.90;;;;;;4423466;32;20159;-76
2020/12/02 01:19:39;;;;;;;63.97;23.90;;;-2.90;99.90;;;;;;4424398;32;20152;-75
2020/12/02 01:22:13;;;;;;;60.33;22.67;;;-2.90;99.90;;;;;;4423078;32;20392;-76
2020/12/02 01:25:06;;;;;;;63.63;23.03;;;-2.90;99.90;;;;;;4425989;32;20143;-75
2020/12/02 01:27:40;;;;;;;60.03;23.57;;;-3.00;99.90;;;;;;4424989;32;20460;-76
2020/12/02 01:30:13;;;;;;;63.67;24.77;;;-3.00;99.90;;;;;;4439977;32;20214;-74
2020/12/02 01:32:44;;;;;;;64.37;23.83;;;-3.00;99.90;;;;;;4440914;32;20172;-74
2020/12/02 01:35:15;;;;;;;61.03;22.47;;;-3.00;99.90;;;;;;4439987;32;20151;-74
2020/12/02 01:37:43;;;;;;;60.80;22.80;;;-3.00;99.90;;;;;;4441494;32;20146;-74
2020/12/02 01:40:21;;;;;;;59.80;24.07;;;-3.00;99.90;;;;;;4439633;32;20196;-75
2020/12/02 01:43:00;;;;;;;62.50;23.13;;;-3.10;99.90;;;;;;4439766;32;20185;-75
2020/12/02 01:45:40;;;;;;;64.00;23.57;;;-3.10;99.90;;;;;;4441386;32;20189;-74
2020/12/02 01:48:31;;;;;;;55.40;22.67;;;-3.20;99.90;;;;;;4441434;32;20222;-74
2020/12/02 01:51:36;;;;;;;62.10;23.93;;;-3.10;99.90;;;;;;4441089;32;20183;-73
2020/12/02 01:54:13;;;;;;;59.17;21.77;;;-3.20;99.90;;;;;;4439560;32;20144;-73
2020/12/02 01:57:00;;;;;;;64.47;22.90;;;-3.20;99.90;;;;;;4441086;32;20204;-74
2020/12/02 01:59:49;;;;;;;59.00;22.43;;;-3.20;99.90;;;;;;4439654;32;20181;-74
2020/12/02 02:02:37;;;;;;;59.17;23.03;;;-3.40;99.90;;;;;;4439536;32;20144;-73
2020/12/02 02:05:12;;;;;;;60.90;22.13;;;-3.30;99.90;;;;;;4439433;32;20164;-73
2020/12/02 02:07:38;;;;;;;53.70;22.20;;;-3.30;99.90;;;;;;4440710;32;20165;-74
2020/12/02 02:10:14;;;;;;;59.67;22.43;;;-3.30;99.90;;;;;;4439238;32;20154;-74
2020/12/02 02:13:15;;;;;;;55.87;21.40;;;-3.30;99.90;;;;;;4442600;32;20464;-74
2020/12/02 02:16:08;;;;;;;52.73;20.80;;;-3.30;99.90;;;;;;4442274;32;20146;-73
2020/12/02 02:18:35;;;;;;;52.90;21.30;;;-3.40;99.90;;;;;;4443222;32;20219;-73
2020/12/02 02:21:13;;;;;;;58.50;21.20;;;-3.40;99.90;;;;;;4443780;32;20210;-73
2020/12/02 02:23:40;;;;;;;53.37;20.93;;;-3.40;99.90;;;;;;4443881;32;20140;-74
2020/12/02 02:26:30;;;;;;;54.20;20.83;;;-3.40;99.90;;;;;;4442260;32;20506;-73
2020/12/02 02:29:15;;;;;;;54.30;20.67;;;-3.40;99.90;;;;;;4442238;32;20248;-73
2020/12/02 02:32:05;;;;;;;46.70;19.47;;;-3.40;99.90;;;;;;4442545;32;20244;-73
2020/12/02 02:34:35;;;;;;;54.13;20.10;;;-3.30;99.90;;;;;;4442395;32;20143;-75
2020/12/02 02:37:04;;;;;;;50.60;19.43;;;-3.40;99.90;;;;;;4443951;32;20419;-73
2020/12/02 02:39:30;;;;;;;49.90;20.27;;;-3.40;99.90;;;;;;4442128;32;20161;-73
2020/12/02 02:42:23;;;;;;;51.33;19.67;;;-3.40;99.90;;;;;;4443595;32;20177;-73
2020/12/02 02:44:49;;;;;;;49.67;19.10;;;-3.50;99.90;;;;;;4443552;32;20151;-74
2020/12/02 02:47:15;;;;;;;51.50;20.03;;;-3.50;99.90;;;;;;4441942;32;20180;-75
2020/12/02 02:49:43;;;;;;;54.30;20.47;;;-3.50;99.90;;;;;;4441895;32;20155;-74
2020/12/02 02:52:09;;;;;;;52.47;20.90;;;-3.50;99.90;;;;;;4441964;32;20210;-73
2020/12/02 02:54:36;;;;;;;52.90;19.67;;;-3.50;99.90;;;;;;4443366;32;20158;-73
2020/12/02 02:57:03;;;;;;;50.87;20.27;;;-3.50;99.90;;;;;;4441890;32;20147;-74
2020/12/02 02:59:30;;;;;;;50.87;19.03;;;-3.40;99.90;;;;;;4441798;32;20164;-73
2020/12/02 03:01:56;;;;;;;51.53;19.33;;;-3.50;99.90;;;;;;4441781;32;20162;-73
2020/12/02 03:04:23;;;;;;;51.23;19.17;;;-3.40;99.90;;;;;;4441696;32;20234;-73
2020/12/02 03:06:49;;;;;;;42.93;18.47;;;-3.40;99.90;;;;;;4442895;32;20166;-73
2020/12/02 03:09:16;;;;;;;45.00;18.47;;;-3.40;99.90;;;;;;4441568;32;20169;-73
2020/12/02 03:11:43;;;;;;;42.03;18.03;;;-3.30;99.90;;;;;;4443371;32;20150;-73
2020/12/02 03:14:11;;;;;;;45.70;18.80;;;-3.30;99.90;;;;;;4441650;32;20147;-73
2020/12/02 03:16:48;;;;;;;46.30;18.30;;;-3.20;99.90;;;;;;4441606;32;20197;-74
2020/12/02 03:19:17;;;;;;;42.93;17.97;;;-3.20;99.90;;;;;;4441379;32;20222;-74
2020/12/02 03:21:43;;;;;;;41.13;17.03;;;-3.20;99.90;;;;;;4441187;32;20159;-74
2020/12/02 03:24:11;;;;;;;41.70;17.57;;;-3.20;99.90;;;;;;4441500;32;20138;-74
2020/12/02 03:26:38;;;;;;;41.80;17.10;;;-3.10;99.90;;;;;;4442685;32;20226;-74
2020/12/02 03:29:06;;;;;;;39.87;16.73;;;-3.10;99.90;;;;;;4441369;32;20493;-74
2020/12/02 03:31:33;;;;;;;41.40;17.47;;;-3.20;99.90;;;;;;4441351;32;20165;-73
2020/12/02 03:33:59;;;;;;;44.00;17.57;;;-3.30;99.90;;;;;;4441280;32;20205;-74
2020/12/02 03:36:26;;;;;;;44.17;17.83;;;-3.20;99.90;;;;;;4441690;32;20374;-74
2020/12/02 03:38:53;;;;;;;40.47;17.00;;;-3.20;99.90;;;;;;4441237;32;20406;-73
2020/12/02 03:41:20;;;;;;;41.60;18.17;;;-3.10;99.90;;;;;;4442681;32;20152;-72
2020/12/02 03:43:47;;;;;;;40.07;16.63;;;-3.10;99.90;;;;;;4441053;32;20225;-72
2020/12/02 03:46:14;;;;;;;43.10;17.37;;;-3.10;99.90;;;;;;4440478;32;20168;-73
2020/12/02 03:48:41;;;;;;;41.80;17.27;;;-3.00;99.90;;;;;;4441023;32;20138;-73
2020/12/02 03:51:07;;;;;;;39.50;17.07;;;-3.00;99.90;;;;;;4442497;32;20170;-73
2020/12/02 03:53:34;;;;;;;39.97;16.73;;;-3.00;99.90;;;;;;4440945;32;20186;-73
2020/12/02 03:56:00;;;;;;;41.57;17.40;;;-2.90;99.90;;;;;;4441017;32;20147;-73
2020/12/02 03:58:27;;;;;;;40.57;17.53;;;-2.80;99.90;;;;;;4442109;32;20187;-73
2020/12/02 04:00:53;;;;;;;42.80;17.50;;;-2.80;99.90;;;;;;4440855;32;20154;-73
2020/12/02 04:03:20;;;;;;;40.13;16.53;;;-2.80;99.90;;;;;;4440935;32;20142;-73
2020/12/02 04:05:47;;;;;;;41.23;17.93;;;-2.80;99.90;;;;;;4440830;32;20194;-73
2020/12/02 04:08:13;;;;;;;42.40;17.83;;;-2.80;99.90;;;;;;4440310;32;20477;-73
2020/12/02 04:10:40;;;;;;;38.93;17.23;;;-2.90;99.90;;;;;;4440666;32;20443;-74
2020/12/02 04:13:07;;;;;;;37.70;16.37;;;-2.80;99.90;;;;;;4442223;32;20178;-74
2020/12/02 04:15:33;;;;;;;37.10;17.03;;;-2.80;99.90;;;;;;4440643;32;20186;-74
2020/12/02 04:18:00;;;;;;;37.40;16.77;;;-2.70;99.90;;;;;;4442199;32;20186;-74
2020/12/02 04:20:26;;;;;;;39.60;16.97;;;-2.70;99.90;;;;;;4440503;32;20155;-73
2020/12/02 04:22:54;;;;;;;38.10;16.03;;;-2.70;99.90;;;;;;4440571;32;20162;-73
2020/12/02 04:25:23;;;;;;;36.03;16.07;;;-2.70;99.90;;;;;;4441558;32;20142;-74
2020/12/02 04:27:51;;;;;;;36.40;16.13;;;-2.80;99.90;;;;;;4441019;32;20159;-74
2020/12/02 04:30:18;;;;;;;39.70;16.67;;;-2.70;99.90;;;;;;4440385;32;20241;-74
2020/12/02 04:32:46;;;;;;;38.67;15.93;;;-2.70;99.90;;;;;;4439503;32;20173;-74
2020/12/02 04:35:12;;;;;;;39.03;16.57;;;-2.70;99.90;;;;;;4442011;32;20158;-75
2020/12/02 04:37:39;;;;;;;36.60;16.50;;;-2.70;99.90;;;;;;4440443;32;20139;-74
2020/12/02 04:40:11;;;;;;;36.03;16.10;;;-2.70;99.90;;;;;;4440248;32;20143;-74
2020/12/02 04:42:45;;;;;;;36.87;15.57;;;-2.70;99.90;;;;;;4441802;32;20216;-74
2020/12/02 04:45:15;;;;;;;34.43;15.43;;;-2.70;99.90;;;;;;4440370;32;20133;-73
2020/12/02 04:47:44;;;;;;;34.20;15.23;;;-2.70;99.90;;;;;;4441759;32;20175;-74
2020/12/02 04:50:16;;;;;;;37.20;15.87;;;-2.70;99.90;;;;;;4440130;32;20253;-73
2020/12/02 04:53:06;;;;;;;36.80;16.43;;;-2.60;99.90;;;;;;4441697;32;20143;-74
2020/12/02 04:55:32;;;;;;;38.60;16.20;;;-2.50;99.90;;;;;;4377258;32;20225;-75
2020/12/02 04:57:59;;;;;;;33.67;15.37;;;-2.50;99.90;;;;;;4377626;32;20202;-74
2020/12/02 05:00:30;;;;;;;39.00;16.67;;;-2.50;99.90;;;;;;4377234;32;20444;-74
2020/12/02 05:03:12;;;;;;;37.97;16.63;;;-2.50;99.90;;;;;;4377035;32;20144;-74
2020/12/02 05:05:39;;;;;;;37.50;17.07;;;-2.40;99.90;;;;;;4378846;32;20152;-73
2020/12/02 05:08:22;;;;;;;39.17;17.27;;;-2.50;99.90;;;;;;4376969;32;20198;-73
2020/12/02 05:10:51;;;;;;;39.43;17.70;;;-2.40;99.90;;;;;;4378824;32;20151;-73
2020/12/02 05:13:17;;;;;;;37.03;16.17;;;-2.40;99.90;;;;;;4377018;32;20223;-73
2020/12/02 05:15:44;;;;;;;37.90;16.50;;;-2.50;99.90;;;;;;4376589;32;20166;-73
2020/12/02 05:18:13;;;;;;;35.17;16.43;;;-2.50;99.90;;;;;;4378684;32;20167;-73
2020/12/02 05:20:41;;;;;;;36.47;16.73;;;-2.50;99.90;;;;;;4377358;32;20197;-73
2020/12/02 05:23:18;;;;;;;35.10;16.03;;;-2.40;99.90;;;;;;4376279;32;20476;-73
2020/12/02 05:25:46;;;;;;;33.70;15.73;;;-2.40;99.90;;;;;;4376949;32;20148;-73
2020/12/02 05:28:31;;;;;;;33.37;16.13;;;-2.30;99.90;;;;;;4376643;32;20196;-74
2020/12/02 05:31:10;;;;;;;36.47;16.40;;;-2.30;99.90;;;;;;4376565;32;20225;-74
2020/12/02 05:33:37;;;;;;;34.87;15.67;;;-2.30;99.90;;;;;;4433219;32;20182;-73
2020/12/02 05:36:23;;;;;;;29.90;15.13;;;-2.30;99.90;;;;;;4441195;32;20373;-74
2020/12/02 05:39:16;;;;;;;35.67;15.73;;;-2.40;99.90;;;;;;4440551;32;20189;-74
2020/12/02 05:41:47;;;;;;;34.23;14.73;;;-2.30;99.90;;;;;;4416211;32;20170;-74
2020/12/02 05:44:20;;;;;;;34.70;15.80;;;-2.30;99.90;;;;;;4441797;32;20151;-74
2020/12/02 05:46:53;;;;;;;30.90;14.97;;;-2.20;99.90;;;;;;4444444;32;20144;-74
2020/12/02 05:49:41;;;;;;;32.80;15.13;;;-2.20;99.90;;;;;;4444356;32;20208;-74
2020/12/02 05:52:18;;;;;;;34.57;16.10;;;-2.10;99.90;;;;;;4442801;32;20173;-73
2020/12/02 05:54:46;;;;;;;31.97;14.63;;;-2.10;99.90;;;;;;4444305;32;20142;-74
2020/12/02 05:57:18;;;;;;;32.67;15.63;;;-2.10;99.90;;;;;;4442603;32;20197;-73
2020/12/02 05:59:50;;;;;;;33.70;15.70;;;-2.10;99.90;;;;;;4442624;32;20143;-74
2020/12/02 06:02:19;;;;;;;29.97;15.10;;;-2.20;99.90;;;;;;4444173;32;20481;-74
2020/12/02 06:04:53;;;;;;;33.03;14.73;;;-2.20;99.90;;;;;;4442615;32;20147;-74
2020/12/02 06:07:20;;;;;;;29.07;14.00;;;-2.20;99.90;;;;;;4442883;32;20210;-73
2020/12/02 06:09:49;;;;;;;29.23;14.37;;;-2.10;99.90;;;;;;4442545;32;20185;-73
2020/12/02 06:12:38;;;;;;;31.40;14.47;;;-2.10;99.90;;;;;;4442456;32;20146;-74
2020/12/02 06:15:24;;;;;;;31.80;15.47;;;-2.10;99.90;;;;;;4442752;32;20184;-74
2020/12/02 06:18:27;;;;;;;31.90;14.30;;;-2.10;99.90;;;;;;4442439;32;20139;-74
2020/12/02 06:20:53;;;;;;;30.30;14.60;;;-2.20;99.90;;;;;;4379847;32;20314;-73
2020/12/02 06:23:26;;;;;;;30.30;13.77;;;-2.20;99.90;;;;;;4379231;32;20688;-73
2020/12/02 06:25:55;;;;;;;29.73;14.07;;;-2.20;99.90;;;;;;4380927;32;20231;-74
2020/12/02 06:28:45;;;;;;;31.37;14.87;;;-2.20;99.90;;;;;;4379829;32;20168;-74
2020/12/02 06:31:16;;;;;;;29.33;14.00;;;-2.20;99.90;;;;;;4379752;32;20178;-74
2020/12/02 06:33:45;;;;;;;33.23;15.07;;;-2.20;99.90;;;;;;4378877;32;20590;-74
2020/12/02 06:36:41;;;;;;;32.47;15.13;;;-2.20;99.90;;;;;;4379888;32;20187;-74
2020/12/02 06:39:10;;;;;;;28.47;14.63;;;-2.20;99.90;;;;;;4334834;33;20208;-74
2020/12/02 06:41:39;;;;;;;30.33;14.00;;;-2.10;99.90;;;;;;4336120;33;20152;-74
2020/12/02 06:44:11;;;;;;;33.07;14.63;;;-2.00;99.90;;;;;;4335114;33;20183;-74
2020/12/02 06:46:59;;;;;;;29.60;14.90;;;-2.10;99.90;;;;;;4334613;33;20473;-74
2020/12/02 06:49:32;;;;;;;32.47;14.87;;;-2.10;99.90;;;;;;4333869;33;20445;-74
2020/12/02 06:52:00;;;;;;;30.60;14.87;;;-2.00;99.90;;;;;;4334623;33;20205;-74
2020/12/02 06:54:32;;;;;;;28.70;14.30;;;-2.00;99.90;;;;;;4333764;33;20439;-75
2020/12/02 06:57:27;;;;;;;29.07;14.90;;;-2.00;99.90;;;;;;4376800;32;20155;-74
2020/12/02 07:00:03;;;;;;;31.03;14.47;;;-2.00;99.90;;;;;;4393647;32;20463;-74
2020/12/02 07:02:51;;;;;;;29.40;13.87;;;-2.10;99.90;;;;;;4393839;32;20151;-74
2020/12/02 07:05:26;;;;;;;28.33;13.97;;;-2.00;99.90;;;;;;4395348;32;20178;-73
2020/12/02 07:08:12;;;;;;;30.77;14.30;;;-2.00;99.90;;;;;;4395442;32;20189;-73
2020/12/02 07:10:40;;;;;;;31.57;14.70;;;-2.00;99.90;;;;;;4393504;32;20155;-75
2020/12/02 07:13:14;;;;;;;29.70;14.53;;;-2.00;99.90;;;;;;4394829;32;20305;-74
2020/12/02 07:15:42;;;;;;;32.73;15.63;;;-2.10;99.90;;;;;;4421001;32;20172;-74
2020/12/02 07:18:14;;;;;;;31.70;15.93;;;-2.10;99.90;;;;;;4442464;32;20427;-74
2020/12/02 07:20:53;;;;;;;32.67;15.70;;;-2.10;99.90;;;;;;4442895;32;20390;-74
2020/12/02 07:23:21;;;;;;;31.70;15.77;;;-1.90;99.90;;;;;;4442297;32;20169;-75
2020/12/02 07:25:53;;;;;;;33.63;15.17;;;-1.80;99.90;;;;;;4442866;32;20198;-74
2020/12/02 07:28:21;;;;;;;31.13;15.13;;;-1.80;99.90;;;;;;4442054;32;20184;-73
2020/12/02 07:30:48;;;;;;;31.77;15.87;;;-1.80;99.90;;;;;;4441282;32;20181;-74
2020/12/02 07:33:26;;;;;;;32.03;15.03;;;-1.80;99.90;;;;;;4442932;32;20405;-74
2020/12/02 07:36:12;;;;;;;32.10;15.60;;;-1.80;99.90;;;;;;4441219;32;20452;-74
2020/12/02 07:38:41;;;;;;;29.33;15.07;;;-1.80;99.90;;;;;;4442952;32;20173;-74
2020/12/02 07:41:17;;;;;;;29.87;15.70;;;-1.80;99.90;;;;;;4442555;32;20194;-74
2020/12/02 07:43:47;;;;;;;29.03;15.40;;;-1.80;99.90;;;;;;4440869;32;20309;-73
2020/12/02 07:46:14;;;;;;;34.37;15.70;;;-1.70;99.90;;;;;;4441055;32;20176;-73
2020/12/02 07:48:42;;;;;;;31.47;15.60;;;-1.60;99.90;;;;;;4440966;32;20545;-74
2020/12/02 07:51:20;;;;;;;31.00;16.07;;;-1.60;99.90;;;;;;4440614;32;20197;-73
2020/12/02 07:54:15;;;;;;;33.77;14.93;;;-1.70;99.90;;;;;;4442423;32;20172;-74
2020/12/02 07:56:45;;;;;;;31.80;15.63;;;-1.70;99.90;;;;;;4442630;32;20461;-73
2020/12/02 07:59:19;;;;;;;31.93;15.47;;;-1.60;99.90;;;;;;4442350;32;20167;-74
2020/12/02 08:02:02;;;;;;;33.57;15.23;;;-1.60;99.90;;;;;;4440803;32;20151;-74
2020/12/02 08:04:49;;;;;;;32.77;15.43;;;-1.60;99.90;;;;;;4442568;32;20217;-74
2020/12/02 08:07:16;;;;;;;32.00;15.57;;;-1.40;99.90;;;;;;4441828;32;20187;-77
2020/12/02 08:09:55;;;;;;;35.27;16.10;;;-1.40;99.90;;;;;;4439832;32;20159;-78
2020/12/02 08:12:30;;;;;;;31.33;14.93;;;-1.40;99.90;;;;;;4441444;32;20185;-74
2020/12/02 08:15:10;;;;;;;30.57;15.33;;;-1.50;99.90;;;;;;4440437;32;20213;-74
2020/12/02 08:17:40;;;;;;;32.43;15.33;;;-1.40;99.90;;;;;;4440537;32;20188;-74
2020/12/02 08:20:25;;;;;;;28.63;15.00;;;-1.40;99.90;;;;;;4442151;32;20173;-74
2020/12/02 08:22:54;;;;;;;33.27;14.57;;;-1.40;99.90;;;;;;4440501;32;20170;-74
2020/12/02 08:25:26;;;;;;;32.27;15.17;;;-1.50;99.90;;;;;;4440387;32;20166;-74
2020/12/02 08:27:57;;;;;;;30.30;15.70;;;-1.50;99.90;;;;;;4441212;32;20449;-75
2020/12/02 08:30:27;;;;;;;30.57;15.77;;;-1.50;99.90;;;;;;4441503;32;20216;-74
2020/12/02 08:33:08;;;;;;;30.07;15.70;;;-1.50;99.90;;;;;;4440280;32;20508;-75
2020/12/02 08:35:43;;;;;;;31.37;15.53;;;-1.40;99.90;;;;;;4441184;32;20457;-74
2020/12/02 08:38:26;;;;;;;31.47;16.43;;;-1.40;99.90;;;;;;4440249;32;20153;-73
2020/12/02 08:40:55;;;;;;;31.03;15.57;;;-1.30;99.90;;;;;;4441821;32;20476;-74
2020/12/02 08:43:25;;;;;;;28.40;15.13;;;-1.30;99.90;;;;;;4440099;32;20353;-73
2020/12/02 08:46:13;;;;;;;33.00;14.80;;;-1.30;99.90;;;;;;4440338;32;20147;-74
2020/12/02 08:48:42;;;;;;;31.40;15.20;;;-1.40;99.90;;;;;;4441615;32;20180;-74
2020/12/02 08:51:12;;;;;;;28.90;14.67;;;-1.50;99.90;;;;;;4439843;32;20182;-73
2020/12/02 08:53:39;;;;;;;33.07;15.77;;;-1.60;99.90;;;;;;4439934;32;20190;-73
2020/12/02 08:56:26;;;;;;;30.30;15.20;;;-1.70;99.90;;;;;;4439840;32;20142;-73
2020/12/02 08:58:52;;;;;;;30.30;15.30;;;-1.60;99.90;;;;;;4441053;32;20391;-75
2020/12/02 09:01:19;;;;;;;29.70;14.80;;;-1.60;99.90;;;;;;4439731;32;20193;-78
2020/12/02 09:03:45;;;;;;;30.10;15.40;;;-1.50;99.90;;;;;;4439442;32;20199;-75
2020/12/02 09:06:17;;;;;;;32.43;16.13;;;-1.60;99.90;;;;;;4439562;32;20168;-76
2020/12/02 09:08:44;;;;;;;33.87;16.03;;;-1.60;99.90;;;;;;4439756;32;20516;-77
2020/12/02 09:11:12;;;;;;;32.13;15.83;;;-1.50;99.90;;;;;;4439515;32;20254;-76
2020/12/02 09:13:38;;;;;;;34.33;16.07;;;-1.40;99.90;;;;;;4439786;32;20206;-75
2020/12/02 09:16:05;;;;;;;30.23;15.57;;;-1.30;99.90;;;;;;4441089;32;20179;-75
2020/12/02 09:18:32;;;;;;;33.07;15.97;;;-1.20;99.90;;;;;;4440603;32;20138;-76
2020/12/02 09:20:58;;;;;;;32.37;15.67;;;-1.20;99.90;;;;;;4439403;32;20196;-76
2020/12/02 09:23:24;;;;;;;31.33;15.00;;;-1.30;99.90;;;;;;4439654;32;20151;-75
2020/12/02 09:25:51;;;;;;;30.20;15.30;;;-1.30;99.90;;;;;;4441038;32;20421;-75
2020/12/02 09:28:17;;;;;;;31.20;15.17;;;-1.40;99.90;;;;;;4438770;32;20559;-77
2020/12/02 09:30:44;;;;;;;30.57;16.27;;;-1.40;99.90;;;;;;4439453;32;20408;-76
2020/12/02 09:33:10;;;;;;;31.23;15.67;;;-1.30;99.90;;;;;;4438662;32;20179;-77
2020/12/02 09:35:37;;;;;;;29.63;15.03;;;-1.20;99.90;;;;;;4439184;32;20161;-75
2020/12/02 09:38:08;;;;;;;31.93;14.73;;;-1.10;99.90;;;;;;4440713;32;20451;-75
2020/12/02 09:40:35;;;;;;;28.73;14.23;;;-1.10;99.90;;;;;;4438469;32;20472;-75
2020/12/02 09:43:16;;;;;;;31.17;14.53;;;-1.00;99.80;;;;;;4440158;32;20284;-75
2020/12/02 09:46:14;;;;;;;31.27;14.93;;;-1.00;99.30;;;;;;4438581;32;20205;-74
2020/12/02 09:48:40;;;;;;;29.93;14.57;;;-1.00;99.50;;;;;;4429311;32;20199;-75
2020/12/02 09:51:20;;;;;;;30.57;14.97;;;-1.10;99.40;;;;;;4438895;32;20165;-75
2020/12/02 09:53:48;;;;;;;32.27;14.63;;;-1.10;99.40;;;;;;4438437;32;20154;-76
2020/12/02 09:56:17;;;;;;;29.93;15.33;;;-1.20;99.50;;;;;;4426513;32;20134;-76
2020/12/02 09:58:44;;;;;;;33.17;16.20;;;-1.20;99.30;;;;;;4439141;32;20162;-76
2020/12/02 10:01:36;;;;;;;30.70;15.53;;;-1.30;99.60;;;;;;4438639;32;20147;-77
2020/12/02 10:04:21;;;;;;;32.07;15.77;;;-1.30;99.80;;;;;;4439122;32;20207;-75
2020/12/02 10:07:06;;;;;;;30.40;15.77;;;-1.30;99.80;;;;;;4438987;32;20518;-75
2020/12/02 10:09:59;;;;;;;30.03;15.30;;;-1.30;99.60;;;;;;4439085;32;20177;-75
2020/12/02 10:12:47;;;;;;;29.93;15.10;;;-1.20;99.00;;;;;;4429043;32;20192;-75
2020/12/02 10:15:25;;;;;;;29.70;14.90;;;-1.30;98.80;;;;;;4439165;32;20223;-74
2020/12/02 10:18:22;;;;;;;32.43;15.37;;;-1.20;99.10;;;;;;4439911;32;20169;-74
2020/12/02 10:20:55;;;;;;;31.37;15.10;;;-1.20;99.00;;;;;;4439147;32;20212;-73
2020/12/02 10:23:37;;;;;;;33.03;15.43;;;-1.10;98.90;;;;;;4440267;32;20205;-74
2020/12/02 10:26:23;;;;;;;33.60;15.20;;;-1.00;98.50;;;;;;4439334;32;20155;-76
2020/12/02 10:28:58;;;;;;;29.77;14.63;;;-1.00;98.40;;;;;;4438919;32;20162;-73
2020/12/02 10:31:34;;;;;;;30.53;15.17;;;-1.00;98.30;;;;;;4441154;32;20210;-74
2020/12/02 10:34:14;;;;;;;29.90;14.90;;;-1.00;98.50;;;;;;4441795;32;20153;-73
2020/12/02 10:36:51;;;;;;;30.40;15.47;;;-1.00;97.10;;;;;;4443343;32;20147;-75
2020/12/02 10:39:27;;;;;;;31.10;14.90;;;-1.20;96.50;;;;;;4441759;32;20193;-74
2020/12/02 10:42:10;;;;;;;28.73;14.53;;;-1.20;96.80;;;;;;4443198;32;20185;-75
2020/12/02 10:44:53;;;;;;;29.70;14.57;;;-1.30;97.00;;;;;;4442429;32;20207;-76
2020/12/02 10:47:38;;;;;;;30.73;15.07;;;-1.20;97.60;;;;;;4441607;32;20226;-75
2020/12/02 10:50:08;;;;;;;28.50;14.77;;;-1.10;97.30;;;;;;4442746;32;20154;-74
2020/12/02 10:52:35;;;;;;;27.03;14.53;;;-1.10;97.10;;;;;;4442061;32;20206;-74
2020/12/02 10:55:03;;;;;;;29.83;15.00;;;-1.00;97.10;;;;;;4440733;32;20238;-72
2020/12/02 10:57:29;;;;;;;28.33;14.60;;;-1.00;96.50;;;;;;4442562;32;20170;-74
2020/12/02 10:59:57;;;;;;;33.20;14.87;;;-1.00;96.90;;;;;;4441371;32;20438;-74
2020/12/02 11:02:27;;;;;;;29.20;14.73;;;-0.80;96.80;;;;;;4441377;32;20485;-74
2020/12/02 11:04:56;;;;;;;29.07;15.00;;;-0.60;96.40;;;;;;4442960;32;20422;-76
2020/12/02 11:07:49;;;;;;;29.43;15.00;;;-0.60;96.20;;;;;;4441225;32;20202;-74
2020/12/02 11:10:22;;;;;;;29.40;15.07;;;-0.60;96.00;;;;;;4426520;32;20189;-76
2020/12/02 11:13:04;;;;;;;28.43;15.20;;;-0.50;96.00;;;;;;4442203;32;20534;-71
2020/12/02 11:15:50;;;;;;;32.43;14.97;;;-0.40;95.80;;;;;;4440973;32;20158;-70
2020/12/02 11:18:21;;;;;;;29.23;15.03;;;-0.40;95.80;;;;;;4430118;32;20394;-69
2020/12/02 11:20:48;;;;;;;27.70;14.43;;;-0.40;95.50;;;;;;4441178;32;20170;-71
2020/12/02 11:23:26;;;;;;;27.53;14.97;;;-0.40;95.20;;;;;;4441879;32;20506;-70
2020/12/02 11:26:03;;;;;;;27.63;15.20;;;-0.30;94.70;;;;;;4442321;32;20157;-72
2020/12/02 11:28:30;;;;;;;27.90;15.40;;;-0.30;94.10;;;;;;4440726;32;20158;-70
2020/12/02 11:31:16;;;;;;;29.23;14.87;;;-0.40;94.00;;;;;;4440871;32;20208;-72
2020/12/02 11:34:06;;;;;;;29.03;15.43;;;-0.40;93.90;;;;;;4441072;32;20158;-72
2020/12/02 11:36:32;;;;;;;29.67;15.60;;;-0.50;93.80;;;;;;4431714;32;20196;-73
2020/12/02 11:39:19;;;;;;;32.07;15.63;;;-0.50;94.10;;;;;;4440751;32;20202;-73
2020/12/02 11:42:05;;;;;;;29.87;15.97;;;-0.60;94.80;;;;;;4442284;32;20162;-72
2020/12/02 11:44:37;;;;;;;30.63;16.40;;;-0.50;94.50;;;;;;4429941;32;20177;-71
2020/12/02 11:47:40;;;;;;;31.80;16.80;;;-0.40;94.50;;;;;;4440666;32;20449;-70
2020/12/02 11:50:23;;;;;;;29.97;16.13;;;-0.20;94.30;;;;;;4408396;32;20158;-72
2020/12/02 11:53:21;;;;;;;32.17;16.43;;;-0.30;94.30;;;;;;4409465;32;20213;-71
2020/12/02 11:55:48;;;;;;;28.93;15.87;;;-0.20;94.10;;;;;;4407692;32;20212;-73
2020/12/02 11:58:16;;;;;;;29.57;16.27;;;-0.10;94.20;;;;;;4396896;32;20202;-73
2020/12/02 12:00:43;;;;;;;28.70;16.10;;;0.00;93.90;;;;;;4407872;32;20245;-72
2020/12/02 12:03:21;;;;;;;35.27;16.73;;;0.10;93.50;;;;;;4408921;32;20206;-72
2020/12/02 12:06:00;;;;;;;34.43;17.53;;;0.10;93.10;;;;;;4409278;32;20158;-72
2020/12/02 12:08:48;;;;;;;36.87;18.73;;;0.00;92.80;;;;;;4396833;32;20177;-72
2020/12/02 12:11:30;;;;;;;41.13;19.30;;;-0.10;92.90;;;;;;4405316;32;20532;-72
2020/12/02 12:14:16;;;;;;;38.17;19.30;;;-0.20;93.10;;;;;;4408657;32;20550;-73
2020/12/02 12:16:53;;;;;;;37.30;18.67;;;-0.20;93.00;;;;;;4408196;32;20181;-72
2020/12/02 12:19:37;;;;;;;38.53;18.10;;;-0.20;93.20;;;;;;4408642;32;20228;-72
2020/12/02 12:22:16;;;;;;;35.83;17.93;;;-0.10;93.00;;;;;;4407479;32;20220;-72
2020/12/02 12:24:47;;;;;;;37.93;18.07;;;0.00;92.70;;;;;;4407529;32;20178;-70
2020/12/02 12:27:21;;;;;;;33.73;18.27;;;0.00;92.60;;;;;;4427916;32;20205;-71
2020/12/02 12:29:48;;;;;;;36.77;18.07;;;-0.10;92.60;;;;;;4440717;32;20223;-73
2020/12/02 12:32:39;;;;;;;36.60;17.87;;;-0.10;92.80;;;;;;4427228;32;20165;-73
2020/12/02 12:35:38;;;;;;;35.07;17.97;;;-0.20;93.10;;;;;;4439878;32;20203;-72
2020/12/02 12:38:10;;;;;;;33.47;16.93;;;-0.20;93.70;;;;;;4439561;32;20177;-72
2020/12/02 12:40:43;;;;;;;36.80;18.00;;;-0.10;93.30;;;;;;4441433;32;20579;-72
2020/12/02 12:43:14;;;;;;;35.63;17.63;;;-0.10;93.30;;;;;;4439790;32;20524;-73
2020/12/02 12:45:44;;;;;;;35.40;17.57;;;-0.10;93.50;;;;;;4441493;32;20151;-71
2020/12/02 12:48:15;;;;;;;34.97;16.47;;;-0.20;93.50;;;;;;4441248;32;20166;-70
2020/12/02 12:50:44;;;;;;;33.83;17.37;;;-0.10;93.70;;;;;;4439719;32;20162;-72
2020/12/02 12:53:11;;;;;;;38.00;16.43;;;-0.10;93.90;;;;;;4439609;32;20229;-73
2020/12/02 12:55:38;;;;;;;35.73;17.30;;;-0.10;93.80;;;;;;4440767;32;20185;-72
2020/12/02 12:58:11;;;;;;;38.37;17.17;;;-0.20;93.90;;;;;;4440354;32;20190;-71
2020/12/02 13:00:40;;;;;;;35.13;16.87;;;-0.30;93.80;;;;;;4439723;32;20492;-73
2020/12/02 13:03:13;;;;;;;33.37;16.87;;;-0.30;94.10;;;;;;4440330;32;20170;-74